Flight Track Log - Related Links

Times and Time Zones

All times are in EDT time to prevent confusion due to time zone crossing. See the SWA407 flight status page for this flight to view local times or setup timezone preferences in your user account.

Time Position Orientation Groundspeed Altitude Reporting Facility
EDT Latitude Longitude Course Direction KTS MPH feet Rate Location/Type
Fri 05:58:42 PM 33.6500 -84.4500 270° West 161 185 2,300  Level Atlanta TRACON
Fri 05:59:42 PM 33.6500 -84.5167 270° West 213 245 4,500 2,150 Climbing Atlanta TRACON
Fri 06:00:42 PM 33.6667 -84.5833 287° West 236 272 6,600 2,600 Climbing Atlanta TRACON
Fri 06:01:42 PM 33.6833 -84.6667 284° West 239 275 9,700 1,944 Climbing Atlanta TRACON
Fri 06:03:41 PM 33.7122 -84.8531 281° West 301 346 12,400 1,676 Climbing Atlanta Center
Fri 06:04:41 PM 33.7303 -84.9606 281° West 329 379 14,700 2,500 Climbing Atlanta Center
Fri 06:05:41 PM 33.7461 -85.0756 279° West 348 400 17,400 2,700 Climbing Atlanta Center
Fri 06:06:41 PM 33.7636 -85.2008 280° West 353 406 20,100 2,200 Climbing Atlanta Center
Fri 06:07:41 PM 33.7814 -85.3158 281° West 353 406 21,800 2,000 Climbing Atlanta Center
Fri 06:08:41 PM 33.8050 -85.4389 283° West 364 419 24,100 2,000 Climbing Atlanta Center
Fri 06:09:41 PM 33.8267 -85.5617 282° West 369 425 25,800 1,500 Climbing Atlanta Center
Fri 06:10:41 PM 33.8522 -85.6872 284° West 382 440 27,100 1,300 Climbing Atlanta Center
Fri 06:11:41 PM 33.8842 -85.7903 291° West 396 456 28,400 1,300 Climbing Atlanta Center
Fri 06:12:41 PM 33.9281 -85.9264 291° West 401 461 29,700 800 Climbing Atlanta Center
Fri 06:13:41 PM 33.9697 -86.0603 291° West 413 475 30,000 450 Climbing Atlanta Center
Fri 06:14:41 PM 34.0092 -86.1914 290° West 418 481 30,600 750 Climbing Atlanta Center
Fri 06:15:41 PM 34.0444 -86.3203 288° West 418 481 31,500 700 Climbing Atlanta Center
Fri 06:16:41 PM 34.0797 -86.4464 289° West 408 470 32,000 800 Climbing Atlanta Center
Fri 06:17:41 PM 34.1147 -86.5731 288° West 408 470 33,100 1,271 Climbing Atlanta Center
Fri 06:18:06 PM 34.1292 -86.6261 288° West 404 465 33,800 1,286 Climbing Memphis Center
Fri 06:19:05 PM 34.1619 -86.7475 288° West 399 459 34,900 1,008 Climbing Memphis Center
Fri 06:20:05 PM 34.1967 -86.8717 289° West 399 459 35,800 545 Climbing Memphis Center
Fri 06:21:06 PM 34.2361 -87.0108 289° West 397 457 36,000 100 Climbing Memphis Center
Fri 06:22:05 PM 34.2683 -87.1300 288° West 386 444 36,000  Level Memphis Center
Fri 06:23:06 PM 34.3025 -87.2419 290° West 386 444 36,000  Level Memphis Center
Fri 06:24:05 PM 34.3372 -87.3764 287° West 386 444 36,000  Level Memphis Center
Fri 06:25:06 PM 34.3714 -87.5011 288° West 386 444 36,000  Level Memphis Center
Fri 06:26:05 PM 34.4056 -87.6233 289° West 386 444 36,000  Level Memphis Center
Fri 06:27:05 PM 34.4394 -87.7456 289° West 386 444 36,000  Level Memphis Center
Fri 06:28:05 PM 34.4711 -87.8681 287° West 376 433 36,000  Level Memphis Center
Fri 06:29:05 PM 34.5028 -87.9881 288° West 376 433 36,000  Level Memphis Center
Fri 06:30:05 PM 34.5364 -88.1108 288° West 381 438 36,000  Level Memphis Center
Fri 06:31:05 PM 34.5678 -88.2386 287° West 387 445 36,000  Level Memphis Center
Fri 06:32:05 PM 34.6011 -88.3639 288° West 392 451 36,000  Level Memphis Center
Fri 06:33:05 PM 34.6322 -88.4842 287° West 392 451 36,000  Level Memphis Center
Fri 06:34:05 PM 34.6589 -88.5872 287° West 370 426 36,000  Level Memphis Center
Fri 06:35:06 PM 34.6917 -88.7078 288° West 376 433 36,000  Level Memphis Center
Fri 06:36:06 PM 34.7247 -88.8333 288° West 381 438 36,000  Level Memphis Center
Fri 06:37:06 PM 34.7572 -88.9542 288° West 381 438 36,000  Level Memphis Center
Fri 06:38:05 PM 34.7881 -89.0800 287° West 376 433 36,000  Level Memphis Center
Fri 06:39:05 PM 34.8183 -89.1986 287° West 376 433 36,000  Level Memphis Center
Fri 06:40:05 PM 34.8486 -89.3169 287° West 376 433 36,000  Level Memphis Center
Fri 06:41:05 PM 34.8831 -89.4483 288° West 376 433 36,000  Level Memphis Center
Fri 06:42:06 PM 34.9150 -89.5669 288° West 370 426 36,000  Level Memphis Center
Fri 06:43:06 PM 34.9386 -89.6681 286° West 375 432 36,000  Level Memphis Center
Fri 06:44:06 PM 34.9664 -89.8022 284° West 375 432 36,000  Level Memphis Center
Fri 06:45:06 PM 35.0044 -89.9286 290° West 388 447 36,000  Level Memphis Center
Fri 06:46:05 PM 35.0403 -90.0528 289° West 388 447 36,000  Level Memphis Center
Fri 06:47:05 PM 35.0803 -90.1844 290° West 388 447 36,000  Level Memphis Center
Fri 06:48:05 PM 35.1200 -90.3089 291° West 389 448 36,000  Level Memphis Center
Fri 06:49:05 PM 35.1575 -90.4308 291° West 389 448 36,000  Level Memphis Center
Fri 06:50:05 PM 35.1969 -90.5553 291° West 389 448 36,000  Level Memphis Center
Fri 06:51:06 PM 35.2344 -90.6722 291° West 389 448 36,000  Level Memphis Center
Fri 06:52:05 PM 35.2736 -90.7997 291° West 389 448 36,000  Level Memphis Center
Fri 06:53:05 PM 35.3106 -90.9244 290° West 389 448 36,000  Level Memphis Center
Fri 06:54:06 PM 35.3497 -91.0469 291° West 389 448 36,000  Level Memphis Center
Fri 06:55:05 PM 35.3844 -91.1567 291° West 389 448 36,000  Level Memphis Center
Fri 06:56:06 PM 35.4253 -91.2972 290° West 394 453 36,000  Level Memphis Center
Fri 06:57:05 PM 35.4556 -91.4072 289° West 395 455 36,000  Level Memphis Center
Fri 06:58:06 PM 35.4964 -91.5275 293° West 388 447 36,000  Level Memphis Center
Fri 06:59:05 PM 35.5347 -91.6556 290° West 393 452 36,000  Level Memphis Center
Fri 07:00:05 PM 35.5728 -91.7814 290° West 393 452 36,000  Level Memphis Center
Fri 07:01:05 PM 35.6111 -91.9069 291° West 393 452 36,000  Level Memphis Center
Fri 07:02:05 PM 35.6469 -92.0356 289° West 393 452 36,000  Level Memphis Center
Fri 07:03:06 PM 35.6847 -92.1589 291° West 393 452 36,000  Level Memphis Center
Fri 07:04:06 PM 35.7206 -92.2850 289° West 393 452 36,000  Level Memphis Center
Fri 07:05:06 PM 35.7581 -92.4114 290° West 393 452 36,000  Level Memphis Center
Fri 07:06:05 PM 35.7936 -92.5350 290° West 388 447 36,000  Level Memphis Center
Fri 07:07:06 PM 35.8311 -92.6564 291° West 388 447 36,000  Level Memphis Center
Fri 07:08:06 PM 35.8661 -92.7803 289° West 388 447 36,000  Level Memphis Center
Fri 07:09:05 PM 35.9014 -92.8992 290° West 388 447 36,000  Level Memphis Center
Fri 07:10:05 PM 35.9364 -93.0206 290° West 388 447 36,000  Level Memphis Center
Fri 07:11:06 PM 35.9711 -93.1425 289° West 388 447 36,000  Level Memphis Center
Fri 07:12:06 PM 36.0039 -93.2667 288° West 388 447 36,000  Level Memphis Center
Fri 07:13:06 PM 36.0406 -93.3861 291° West 388 447 36,000  Level Memphis Center
Fri 07:14:06 PM 36.0731 -93.5106 288° West 388 447 36,000  Level Memphis Center
Fri 07:16:05 PM 36.1475 -93.7703 290° West 387 445 36,000  Level Memphis Center
Fri 07:17:05 PM 36.1819 -93.8825 291° West 387 445 36,000  Level Memphis Center
Fri 07:18:05 PM 36.2175 -94.0203 288° West 387 445 36,000  Level Memphis Center
Fri 07:19:05 PM 36.2533 -94.1453 290° West 387 445 36,000  Level Memphis Center
Fri 07:20:05 PM 36.2931 -94.2733 291° West 392 451 36,000  Level Memphis Center
Fri 07:22:35 PM 36.3872 -94.5608 292° West 385 443 36,000  Level Kansas City Center
Fri 07:23:36 PM 36.4253 -94.6836 291° West 384 442 36,000  Level Kansas City Center
Fri 07:24:37 PM 36.4647 -94.8072 292° West 384 442 36,000  Level Kansas City Center
Fri 07:25:39 PM 36.5100 -94.9553 291° West 383 441 36,000  Level Kansas City Center
Fri 07:26:43 PM 36.5481 -95.0797 291° West 386 444 36,000  Level Kansas City Center
Fri 07:27:44 PM 36.5847 -95.1944 292° West 385 443 36,000  Level Kansas City Center
Fri 07:28:45 PM 36.6247 -95.3272 291° West 388 447 36,000  Level Kansas City Center
Fri 07:29:48 PM 36.6631 -95.4522 291° West 390 449 36,000  Level Kansas City Center
Fri 07:30:48 PM 36.7094 -95.6044 291° West 394 453 36,000  Level Kansas City Center
Fri 07:31:49 PM 36.7483 -95.7322 291° West 396 456 36,000  Level Kansas City Center
Fri 07:32:51 PM 36.7875 -95.8589 291° West 395 455 36,000  Level Kansas City Center
Fri 07:33:55 PM 36.8250 -95.9861 290° West 392 451 36,000  Level Kansas City Center
Fri 07:34:56 PM 36.8561 -96.1158 287° West 391 450 36,000  Level Kansas City Center
Fri 07:35:56 PM 36.8831 -96.2478 284° West 392 451 36,000  Level Kansas City Center
Fri 07:37:00 PM 36.9106 -96.3783 285° West 389 448 36,000  Level Kansas City Center
Fri 07:38:00 PM 36.9442 -96.5342 285° West 387 445 36,000  Level Kansas City Center
Fri 07:39:03 PM 36.9719 -96.6636 285° West 386 444 36,000  Level Kansas City Center
Fri 07:40:04 PM 36.9953 -96.7772 284° West 386 444 36,000  Level Kansas City Center
Fri 07:41:05 PM 37.0225 -96.9069 285° West 385 443 36,000  Level Kansas City Center
Fri 07:42:09 PM 37.0528 -97.0650 284° West 387 445 36,000  Level Kansas City Center
Fri 07:43:10 PM 37.0786 -97.1972 284° West 389 448 36,000  Level Kansas City Center
Fri 07:44:11 PM 37.1042 -97.3283 284° West 388 447 36,000  Level Kansas City Center
Fri 07:45:14 PM 37.1306 -97.4572 284° West 385 443 36,000  Level Kansas City Center
Fri 07:46:15 PM 37.1564 -97.5914 284° West 393 452 36,000  Level Kansas City Center
Fri 07:47:17 PM 37.1828 -97.7239 284° West 392 451 36,000  Level Kansas City Center
Fri 07:48:17 PM 37.2092 -97.8575 284° West 392 451 36,000  Level Kansas City Center
Fri 07:49:21 PM 37.2350 -97.9919 284° West 394 453 36,000  Level Kansas City Center
Fri 07:50:22 PM 37.2667 -98.1533 284° West 395 455 36,000  Level Kansas City Center
Fri 07:51:23 PM 37.2931 -98.2886 284° West 396 456 36,000  Level Kansas City Center
Fri 07:52:26 PM 37.3181 -98.4222 283° West 395 455 36,000  Level Kansas City Center
Fri 07:53:27 PM 37.3439 -98.5556 284° West 393 452 36,000  Level Kansas City Center
Fri 07:54:31 PM 37.3689 -98.6897 283° West 393 452 36,000  Level Kansas City Center
Fri 07:55:31 PM 37.3936 -98.8219 283° West 391 450 36,000  Level Kansas City Center
Fri 07:56:32 PM 37.4178 -98.9542 283° West 389 448 36,000  Level Kansas City Center
Fri 07:57:35 PM 37.4422 -99.0853 283° West 388 447 36,000  Level Kansas City Center
Fri 07:58:36 PM 37.4708 -99.2439 283° West 388 447 36,000  Level Kansas City Center
Fri 07:59:37 PM 37.4942 -99.3767 283° West 388 447 36,000  Level Kansas City Center
Fri 08:00:41 PM 37.5178 -99.5131 282° West 387 445 36,000  Level Kansas City Center
Fri 08:01:41 PM 37.5403 -99.6397 283° West 387 445 36,000  Level Kansas City Center
Fri 08:02:42 PM 37.5667 -99.7875 283° West 388 447 36,000  Level Kansas City Center
Fri 08:03:46 PM 37.5900 -99.9136 283° West 388 447 36,000  Level Kansas City Center
Fri 08:04:45 PM 37.6153 -100.0614 282° West 387 445 36,000  Level Kansas City Center
Fri 08:05:50 PM 37.6369 -100.1875 282° West 386 444 36,000  Level Kansas City Center
Fri 08:06:50 PM 37.6594 -100.3142 283° West 386 444 36,000  Level Kansas City Center
Fri 08:07:51 PM 37.6850 -100.4642 282° West 391 450 36,000  Level Kansas City Center
Fri 08:08:53 PM 37.7078 -100.5983 282° West 390 449 36,000  Level Kansas City Center
Fri 08:09:54 PM 37.7306 -100.7308 282° West 387 445 36,000  Level Kansas City Center
Fri 08:10:58 PM 37.7517 -100.8639 281° West 385 443 36,000  Level Kansas City Center
Fri 08:11:59 PM 37.7756 -101.0044 282° West 379 436 36,000  Level Kansas City Center
Fri 08:13:00 PM 37.7964 -101.1289 282° West 380 437 36,000  Level Kansas City Center
Fri 08:14:00 PM 37.8200 -101.2744 282° West 380 437 36,000  Level Kansas City Center
Fri 08:15:05 PM 37.8400 -101.3986 282° West 378 435 36,000  Level Kansas City Center
Fri 08:16:05 PM 37.8636 -101.5447 282° West 380 437 36,000  Level Kansas City Center
Fri 08:17:06 PM 37.8847 -101.6706 282° West 382 440 36,000  Level Kansas City Center
Fri 08:17:38 PM 37.8972 -101.7553 281° West 382 440 36,000  Level Denver Center
Fri 08:18:40 PM 37.9183 -101.8831 282° West 387 445 36,000  Level Denver Center
Fri 08:19:54 PM 37.9417 -102.0308 281° West 385 443 36,000  Level Denver Center
Fri 08:20:56 PM 37.9644 -102.1800 281° West 387 445 36,000  Level Denver Center
Fri 08:21:58 PM 37.9883 -102.3286 282° West 386 444 36,000  Level Denver Center
Fri 08:23:00 PM 38.0053 -102.4569 280° West 385 443 36,000  Level Denver Center
Fri 08:24:02 PM 38.0261 -102.6047 280° West 382 440 36,000  Level Denver Center
Fri 08:25:04 PM 38.0436 -102.7325 280° West 384 442 36,000  Level Denver Center
Fri 08:26:06 PM 38.0625 -102.8789 279° West 377 434 36,000  Level Denver Center
Fri 08:27:08 PM 38.0803 -103.0036 280° West 377 434 36,000  Level Denver Center
Fri 08:28:09 PM 38.0986 -103.1481 279° West 382 440 36,000  Level Denver Center
Fri 08:29:11 PM 38.1156 -103.2725 280° West 377 434 36,000  Level Denver Center
Fri 08:30:13 PM 38.1283 -103.3781 279° West 380 437 36,000  Level Denver Center
Fri 08:31:15 PM 38.1511 -103.5458 280° West 380 437 36,000  Level Denver Center
Fri 08:32:17 PM 38.1697 -103.6919 279° West 377 434 36,000  Level Denver Center
Fri 08:33:19 PM 38.1850 -103.8181 279° West 378 435 36,000  Level Denver Center
Fri 08:34:21 PM 38.2042 -103.9631 280° West 376 433 36,000  Level Denver Center
Fri 08:35:22 PM 38.2203 -104.0914 279° West 383 441 36,000  Level Denver Center
Fri 08:36:24 PM 38.2350 -104.2200 278° West 385 443 36,000  Level Denver Center
Fri 08:37:38 PM 38.2542 -104.3683 279° West 383 441 36,000  Level Denver Center
Fri 08:38:40 PM 38.2747 -104.5403 279° West 386 444 36,000  Level Denver Center
Fri 08:39:42 PM 38.2900 -104.6672 279° West 382 440 36,000  Level Denver Center
Fri 08:40:44 PM 38.3083 -104.8161 279° West 383 441 36,000  Level Denver Center
Fri 08:41:46 PM 38.3219 -104.9467 278° West 387 445 36,000  Level Denver Center
Fri 08:42:47 PM 38.3381 -105.0739 279° West 383 441 36,000  Level Denver Center
Fri 08:43:49 PM 38.3483 -105.2208 275° West 382 440 36,000  Level Denver Center
Fri 08:44:51 PM 38.3578 -105.3589 275° West 385 443 36,000  Level Denver Center
Fri 08:45:52 PM 38.3658 -105.4972 274° West 387 445 36,000  Level Denver Center
Fri 08:46:54 PM 38.3750 -105.6344 275° West 387 445 36,000  Level Denver Center
Fri 08:47:56 PM 38.3831 -105.7703 274° West 382 440 36,000  Level Denver Center
Fri 08:48:58 PM 38.3911 -105.9172 274° West 382 440 36,000  Level Denver Center
Fri 08:49:59 PM 38.3997 -106.0672 274° West 381 438 36,000  Level Denver Center
Fri 08:51:01 PM 38.4078 -106.1997 274° West 378 435 36,000  Level Denver Center
Fri 08:52:03 PM 38.4164 -106.3356 275° West 380 437 36,000  Level Denver Center
Fri 08:53:05 PM 38.4225 -106.4750 273° West 389 448 36,000  Level Denver Center
Fri 08:54:06 PM 38.4297 -106.6147 274° West 392 451 36,000  Level Denver Center
Fri 08:55:08 PM 38.4369 -106.7522 274° West 388 447 36,000  Level Denver Center
Fri 08:56:10 PM 38.4444 -106.8892 274° West 386 444 36,000  Level Denver Center
Fri 08:57:12 PM 38.4511 -107.0258 274° West 383 441 36,000  Level Denver Center
Fri 08:58:13 PM 38.4522 -107.1636 271° West 387 445 36,000  Level Denver Center
Fri 08:59:15 PM 38.4533 -107.3144 271° West 390 449 36,000  Level Denver Center
Fri 09:00:17 PM 38.4533 -107.4694 270° West 390 449 36,000  Level Denver Center
Fri 09:01:18 PM 38.4533 -107.6025 270° West 392 451 36,000  Level Denver Center
Fri 09:02:20 PM 38.4536 -107.7572 270° West 390 449 36,000  Level Denver Center
Fri 09:03:22 PM 38.4544 -107.8889 271° West 388 447 36,000  Level Denver Center
Fri 09:04:24 PM 38.4539 -108.0211 270° West 389 448 36,000  Level Denver Center
Fri 09:05:25 PM 38.4528 -108.1731 270° West 385 443 36,000  Level Denver Center
Fri 09:06:27 PM 38.4528 -108.3044 270° West 387 445 36,000  Level Denver Center
Fri 09:07:29 PM 38.4519 -108.4578 270° West 387 445 36,000  Level Denver Center
Fri 09:08:31 PM 38.4506 -108.5872 269° West 382 440 36,000  Level Denver Center
Fri 09:09:32 PM 38.4500 -108.7397 270° West 385 443 36,000  Level Denver Center
Fri 09:10:34 PM 38.4486 -108.8708 269° West 387 445 36,000  Level Denver Center
Fri 09:11:36 PM 38.4472 -109.0008 269° West 384 442 36,000  Level Denver Center
Fri 09:12:38 PM 38.4461 -109.1544 270° West 386 444 36,000  Level Denver Center
Fri 09:13:39 PM 38.4433 -109.2825 268° West 381 438 36,000  Level Denver Center
Fri 09:14:41 PM 38.4414 -109.4317 269° West 376 433 36,000  Level Denver Center
Fri 09:15:43 PM 38.4400 -109.5600 269° West 377 434 36,000  Level Denver Center
Fri 09:16:45 PM 38.4372 -109.7097 269° West 378 435 36,000  Level Denver Center
Fri 09:17:47 PM 38.4344 -109.8389 268° West 380 437 36,000  Level Denver Center
Fri 09:18:48 PM 38.4325 -109.9689 269° West 380 437 36,000  Level Denver Center
Fri 09:19:50 PM 38.4294 -110.1189 269° West 379 436 36,000  Level Denver Center
Fri 09:20:14 PM 38.4303 -110.1633 271° West 378 435 36,000  Level Salt Lake Center
Fri 09:21:15 PM 38.4269 -110.3122 268° West 377 434 36,000  Level Salt Lake Center
Fri 09:21:54 PM 38.4236 -110.3958 267° West 377 434 36,000  Level Denver Center
Fri 09:22:55 PM 38.4217 -110.5000 269° West 370 426 36,000  Level Denver Center
Fri 09:23:57 PM 38.4181 -110.6269 268° West 373 429 36,000  Level Denver Center
Fri 09:24:20 PM 38.4175 -110.7131 270° West 372 428 36,000  Level Salt Lake Center
Fri 09:25:21 PM 38.4164 -110.8386 269° West 371 427 36,000  Level Salt Lake Center
Fri 09:26:23 PM 38.4142 -110.9889 269° West 368 423 36,000  Level Salt Lake Center
Fri 09:27:24 PM 38.4119 -111.1194 269° West 369 425 36,000  Level Salt Lake Center
Fri 09:28:25 PM 38.4089 -111.2514 268° West 372 428 36,000  Level Salt Lake Center
Fri 09:29:27 PM 38.4075 -111.3819 269° West 371 427 36,000  Level Salt Lake Center
Fri 09:30:28 PM 38.4039 -111.5125 268° West 371 427 36,000  Level Salt Lake Center
Fri 09:31:30 PM 38.4014 -111.6447 269° West 373 429 36,000  Level Salt Lake Center
Fri 09:32:31 PM 38.3983 -111.7767 268° West 374 430 36,000  Level Salt Lake Center
Fri 09:33:33 PM 38.3944 -111.9081 268° West 374 430 36,000  Level Salt Lake Center
Fri 09:34:34 PM 38.3917 -112.0611 269° West 364 419 36,000  Level Salt Lake Center
Fri 09:35:35 PM 38.3872 -112.1881 267° West 361 415 36,000  Level Salt Lake Center
Fri 09:36:37 PM 38.3836 -112.3147 268° West 360 414 36,000  Level Salt Lake Center
Fri 09:37:38 PM 38.3797 -112.4414 268° West 359 413 36,000  Level Salt Lake Center
Fri 09:38:40 PM 38.3756 -112.5697 268° West 363 418 36,000  Level Salt Lake Center
Fri 09:39:41 PM 38.3717 -112.6986 268° West 366 421 36,000  Level Salt Lake Center
Fri 09:40:43 PM 38.3675 -112.8264 268° West 364 419 36,000  Level Salt Lake Center
Fri 09:41:44 PM 38.3631 -112.9536 267° West 363 418 36,000  Level Salt Lake Center
Fri 09:42:46 PM 38.3542 -113.1067 266° West 363 418 36,000  Level Salt Lake Center
Fri 09:43:47 PM 38.3442 -113.2350 264° West 367 422 36,000  Level Salt Lake Center
Fri 09:44:49 PM 38.3350 -113.3647 265° West 369 425 36,000  Level Salt Lake Center
Fri 09:45:50 PM 38.3244 -113.4903 264° West 363 418 36,000  Level Salt Lake Center
Fri 09:46:51 PM 38.3147 -113.6181 265° West 364 419 36,000  Level Salt Lake Center
Fri 09:47:53 PM 38.3042 -113.7450 264° West 363 418 36,000  Level Salt Lake Center
Fri 09:48:54 PM 38.2947 -113.8708 265° West 360 414 36,000  Level Salt Lake Center
Fri 09:49:56 PM 38.2825 -114.0231 264° West 362 417 36,000  Level Salt Lake Center
Fri 09:50:57 PM 38.2717 -114.1489 264° West 361 415 36,000  Level Salt Lake Center
Fri 09:51:59 PM 38.2597 -114.2758 263° West 362 417 36,000  Level Salt Lake Center
Fri 09:53:00 PM 38.2492 -114.4047 264° West 366 421 36,000  Level Salt Lake Center
Fri 09:54:02 PM 38.2453 -114.5292 268° West 358 412 36,000  Level Salt Lake Center
Fri 09:55:03 PM 38.2403 -114.6517 267° West 351 404 36,000  Level Salt Lake Center
Fri 09:56:05 PM 38.2364 -114.7767 268° West 353 406 36,000  Level Salt Lake Center
Fri 09:57:06 PM 38.2300 -114.9256 267° West 351 404 36,000  Level Salt Lake Center
Fri 09:58:08 PM 38.2264 -115.0475 268° West 348 400 36,000  Level Salt Lake Center
Fri 09:59:10 PM 38.2208 -115.1686 267° West 345 397 36,000  Level Salt Lake Center
Fri 10:00:11 PM 38.2161 -115.2897 267° West 344 396 36,000  Level Salt Lake Center
Fri 10:01:13 PM 38.2100 -115.4256 267° West 350 403 36,000  Level Salt Lake Center
Fri 10:02:14 PM 38.2058 -115.5508 268° West 355 409 36,000  Level Salt Lake Center
Fri 10:03:16 PM 38.1997 -115.6767 267° West 355 409 36,000  Level Salt Lake Center
Fri 10:04:17 PM 38.1942 -115.7997 267° West 351 404 36,000  Level Salt Lake Center
Fri 10:05:19 PM 38.1883 -115.9211 267° West 345 397 36,000  Level Salt Lake Center
Fri 10:06:20 PM 38.1828 -116.0444 267° West 347 399 36,000  Level Salt Lake Center
Fri 10:07:22 PM 38.1772 -116.1669 267° West 347 399 36,000  Level Salt Lake Center
Fri 10:08:23 PM 38.1714 -116.2908 267° West 350 403 36,000  Level Salt Lake Center
Fri 10:09:25 PM 38.1639 -116.4375 266° West 347 399 36,000  Level Salt Lake Center
Fri 10:10:17 PM 38.1597 -116.5364 267° West 350 403 36,000  Level Oakland Center
Fri 10:11:18 PM 38.1525 -116.6603 266° West 349 402 36,000  Level Oakland Center
Fri 10:12:19 PM 38.1467 -116.7850 267° West 354 407 36,000  Level Oakland Center
Fri 10:13:20 PM 38.1397 -116.9092 266° West 353 406 36,000  Level Oakland Center
Fri 10:14:21 PM 38.1331 -117.0361 266° West 357 411 36,000  Level Oakland Center
Fri 10:15:22 PM 38.1256 -117.1722 266° West 357 411 36,000  Level Oakland Center
Fri 10:16:23 PM 38.1142 -117.2969 263° West 356 410 36,000  Level Oakland Center
Fri 10:17:24 PM 38.0847 -117.4172 253° West 356 410 36,000  Level Oakland Center
Fri 10:18:25 PM 38.0567 -117.5383 254° West 357 411 36,000  Level Oakland Center
Fri 10:19:26 PM 38.0281 -117.6606 253° West 359 413 36,000  Level Oakland Center
Fri 10:20:27 PM 37.9997 -117.7844 254° West 364 419 36,000  Level Oakland Center
Fri 10:21:28 PM 37.9875 -117.9097 263° West 358 412 36,000  Level Oakland Center
Fri 10:22:29 PM 37.9739 -118.0361 262° West 360 414 36,000  Level Oakland Center
Fri 10:23:30 PM 37.9606 -118.1636 262° West 364 419 36,000  Level Oakland Center
Fri 10:24:31 PM 37.9464 -118.2922 262° West 367 422 36,000  Level Oakland Center
Fri 10:25:32 PM 37.9333 -118.4208 263° West 368 423 36,000  Level Oakland Center
Fri 10:26:33 PM 37.9169 -118.5742 262° West 365 420 36,000  Level Oakland Center
Fri 10:27:34 PM 37.9019 -118.7014 262° West 365 420 36,000  Level Oakland Center
Fri 10:28:35 PM 37.8883 -118.8314 262° West 369 425 36,000  Level Oakland Center
Fri 10:29:36 PM 37.8739 -118.9622 262° West 374 430 36,000  Level Oakland Center
Fri 10:30:37 PM 37.8581 -119.0872 261° West 371 427 36,000  Level Oakland Center
Fri 10:31:38 PM 37.8442 -119.2158 262° West 370 426 36,000  Level Oakland Center
Fri 10:32:39 PM 37.8283 -119.3453 261° West 372 428 36,000  Level Oakland Center
Fri 10:33:40 PM 37.8125 -119.4767 261° West 376 433 36,000  Level Oakland Center
Fri 10:34:41 PM 37.7983 -119.6061 262° West 375 432 36,000 -295 Level Oakland Center
Fri 10:35:42 PM 37.7817 -119.7367 261° West 377 434 35,400 -787 Descending Oakland Center
Fri 10:36:43 PM 37.7656 -119.8686 261° West 382 440 34,400 -984 Descending Oakland Center
Fri 10:37:44 PM 37.7494 -119.9994 261° West 380 437 33,400 -1,024 Descending Oakland Center
Fri 10:38:46 PM 37.7297 -120.1614 261° West 388 447 32,300 -976 Descending Oakland Center
Fri 10:39:47 PM 37.7122 -120.2967 261° West 389 448 31,400 -934 Descending Oakland Center
Fri 10:40:48 PM 37.6953 -120.4369 261° West 397 457 30,400 -984 Descending Oakland Center
Fri 10:41:49 PM 37.6772 -120.5758 261° West 399 459 29,400 -1,698 Descending Oakland Center
Fri 10:42:34 PM 37.6667 -120.6833 263° West 398 458 27,400 -3,086 Descending Northern Cal TRACON
Fri 10:43:34 PM 37.6500 -120.8167 261° West 409 471 24,000 -3,000 Descending Northern Cal TRACON
Fri 10:44:34 PM 37.6333 -120.9667 262° West 392 451 21,400 -2,850 Descending Northern Cal TRACON
Fri 10:45:34 PM 37.6167 -121.0833 260° West 391 450 18,300 -2,842 Descending Northern Cal TRACON
Fri 10:46:28 PM 37.6000 -121.2000 260° West 384 442 16,000 -2,421 Descending Northern Cal TRACON
Fri 10:47:28 PM 37.5833 -121.3333 261° West 358 412 13,700 -2,100 Descending Northern Cal TRACON
Fri 10:48:28 PM 37.5667 -121.4500 260° West 341 392 11,800 -1,263 Descending Northern Cal TRACON
Fri 10:49:22 PM 37.5667 -121.5500 270° West 301 346 11,300 -450 Descending Northern Cal TRACON
Fri 10:50:28 PM 37.5500 -121.6500 258° West 276 318 10,900 -857 Descending Northern Cal TRACON
Fri 10:51:28 PM 37.5167 -121.7500 247° West 268 308 9,500 -1,100 Descending Northern Cal TRACON
Fri 10:52:28 PM 37.5000 -121.8167 253° West 250 288 8,700 -900 Descending Northern Cal TRACON
Fri 10:53:28 PM 37.4833 -121.9000 256° West 233 268 7,700 -1,150 Descending Northern Cal TRACON
Fri 10:54:28 PM 37.5000 -121.9833 284° West 227 261 6,400 -1,250 Descending Northern Cal TRACON
Fri 10:55:28 PM 37.5167 -122.0500 288° West 212 244 5,200 -1,150 Descending Northern Cal TRACON
Fri 10:56:28 PM 37.5333 -122.1167 288° West 195 224 4,100 -970 Descending Northern Cal TRACON
Fri 10:57:07 PM 37.5497 -122.1456 306° West 201 231 3,600 -900 Descending Oakland Center
Fri 10:58:08 PM 37.5667 -122.2039 290° West 190 219 2,600 -934 Descending Oakland Center
Fri 10:59:09 PM 37.5817 -122.2572 290° West 176 203 1,700 -780 Descending Oakland Center
Fri 11:00:11 PM 37.5886 -122.3031 281° West 150 173 1,000 -732 Descending Oakland Center
Fri 11:01:12 PM 37.6078 -122.3486 298° West 132 152 200 -787 Descending Oakland Center
Fri 11:03:00 PM 37.6167 -122.3667 322° Northwest  Level FlightAware Approximate

Login

Don't have an account? Register now (free) for customized features, flight alerts, and more!